Time;durP1;ratioP1;P1;durP2;ratioP2;P2;SDS_P1;SDS_P2;PMS_P1;PMS_P2;Temp;Humidity;BMP_temperature;BMP_pressure;BME280_temperature;BME280_humidity;BME280_pressure;Samples;Min_cycle;Max_cycle;Signal;HPM_P1;HPM_P2
2023/02/11 00:00:41;;;;;;;86.60;17.70;;;7.00;99.90;;;;;;5011326;28;20194;-82
2023/02/11 00:03:08;;;;;;;89.45;18.25;;;7.00;99.90;;;;;;5012406;28;20410;-81
2023/02/11 00:05:33;;;;;;;87.80;18.75;;;7.10;99.90;;;;;;5012145;28;20171;-82
2023/02/11 00:08:16;;;;;;;83.40;17.10;;;7.10;99.90;;;;;;5012693;28;20205;-81
2023/02/11 00:10:45;;;;;;;86.43;17.25;;;7.10;99.90;;;;;;5011569;28;20449;-81
2023/02/11 00:13:10;;;;;;;93.72;17.45;;;7.10;99.90;;;;;;5011512;28;20181;-81
2023/02/11 00:15:36;;;;;;;84.90;17.87;;;7.00;99.90;;;;;;5010967;28;20230;-81
2023/02/11 00:18:02;;;;;;;90.03;19.30;;;7.10;99.90;;;;;;5011096;28;20174;-81
2023/02/11 00:20:28;;;;;;;88.87;18.43;;;7.10;99.90;;;;;;5012329;28;20739;-81
2023/02/11 00:22:54;;;;;;;85.30;17.33;;;7.10;99.90;;;;;;5010765;28;20418;-81
2023/02/11 00:25:20;;;;;;;88.33;18.87;;;7.10;99.90;;;;;;5011334;28;20174;-81
2023/02/11 00:27:46;;;;;;;84.90;17.07;;;7.10;99.90;;;;;;5011234;28;20441;-81
2023/02/11 00:30:12;;;;;;;84.93;16.67;;;7.10;99.90;;;;;;5011504;28;20162;-81
2023/02/11 00:32:37;;;;;;;89.43;17.05;;;7.10;99.90;;;;;;5011711;28;20242;-81
2023/02/11 00:35:03;;;;;;;91.17;17.47;;;7.10;99.90;;;;;;5012032;28;20175;-81
2023/02/11 00:37:29;;;;;;;84.97;16.50;;;7.10;99.90;;;;;;5012343;28;20250;-81
2023/02/11 00:39:55;;;;;;;89.13;19.60;;;7.00;99.90;;;;;;5012015;28;20174;-81
2023/02/11 00:42:21;;;;;;;88.47;18.90;;;7.00;99.90;;;;;;5011291;28;20198;-81
2023/02/11 00:44:46;;;;;;;90.47;17.43;;;7.00;99.90;;;;;;5011149;28;20493;-81
2023/02/11 00:47:12;;;;;;;86.30;17.53;;;7.00;99.90;;;;;;5011465;28;20406;-81
2023/02/11 00:49:39;;;;;;;86.93;17.00;;;6.90;99.90;;;;;;5011868;28;20554;-81
2023/02/11 00:52:05;;;;;;;90.03;17.05;;;7.00;99.90;;;;;;5011582;28;20421;-81
2023/02/11 00:54:31;;;;;;;87.60;17.10;;;6.90;99.90;;;;;;5010703;28;20181;-81
2023/02/11 00:56:59;;;;;;;87.03;18.00;;;6.90;99.90;;;;;;5011324;28;20192;-81
2023/02/11 00:59:25;;;;;;;85.68;17.83;;;6.90;99.90;;;;;;5011467;28;20174;-81
2023/02/11 01:01:51;;;;;;;87.90;17.23;;;6.90;99.90;;;;;;5012812;28;20177;-81
2023/02/11 01:04:17;;;;;;;87.17;17.17;;;6.80;99.90;;;;;;5012032;28;20175;-81
2023/02/11 01:06:43;;;;;;;88.93;18.10;;;6.70;99.90;;;;;;5011113;28;20175;-81
2023/02/11 01:09:12;;;;;;;88.83;18.83;;;6.70;99.90;;;;;;5010429;28;20649;-81
2023/02/11 01:11:40;;;;;;;85.88;18.23;;;6.70;99.90;;;;;;5010961;28;20429;-81
2023/02/11 01:14:06;;;;;;;90.28;19.38;;;6.70;99.90;;;;;;5011531;28;20173;-81
2023/02/11 01:16:32;;;;;;;90.72;17.13;;;6.60;99.90;;;;;;5011336;28;20162;-81
2023/02/11 01:18:58;;;;;;;89.67;16.90;;;6.50;99.90;;;;;;5011220;28;20257;-81
2023/02/11 01:21:24;;;;;;;94.70;18.77;;;6.40;99.90;;;;;;5011251;28;20429;-81
2023/02/11 01:23:50;;;;;;;87.88;18.95;;;6.30;99.90;;;;;;5010243;28;20438;-81
2023/02/11 01:26:16;;;;;;;85.40;18.10;;;6.20;99.90;;;;;;5010881;28;20194;-81
2023/02/11 01:28:42;;;;;;;93.23;19.60;;;6.20;99.90;;;;;;5011474;28;20445;-81
2023/02/11 01:31:09;;;;;;;87.78;18.33;;;6.10;99.90;;;;;;5010913;28;20449;-81
2023/02/11 01:33:35;;;;;;;87.20;19.23;;;6.00;99.90;;;;;;5010121;28;20242;-81
2023/02/11 01:36:02;;;;;;;93.33;19.50;;;6.10;99.90;;;;;;5009122;28;20210;-81
2023/02/11 01:38:29;;;;;;;87.45;19.85;;;6.10;99.90;;;;;;5010809;28;20294;-81
2023/02/11 01:41:01;;;;;;;87.65;20.25;;;6.10;99.90;;;;;;5010635;28;20186;-82
2023/02/11 01:43:34;;;;;;;91.28;20.75;;;6.00;99.90;;;;;;5010870;28;20187;-81
2023/02/11 01:46:00;;;;;;;89.80;20.83;;;5.90;99.90;;;;;;5011250;28;20212;-81
2023/02/11 01:48:31;;;;;;;92.60;20.47;;;6.00;99.90;;;;;;5010199;28;20202;-81
2023/02/11 01:51:05;;;;;;;85.72;18.98;;;6.00;99.90;;;;;;5011015;28;20422;-81
2023/02/11 01:59:10;;;;;;;93.53;22.90;;;6.00;99.90;;;;;;5011604;28;20278;-83
2023/02/11 02:01:39;;;;;;;89.57;22.10;;;6.00;99.90;;;;;;5009875;28;20186;-83
2023/02/11 02:04:09;;;;;;;90.80;21.00;;;6.10;99.90;;;;;;5011947;28;20171;-83
2023/02/11 02:06:43;;;;;;;93.38;25.15;;;6.10;99.90;;;;;;5009829;28;20185;-84
2023/02/11 02:09:15;;;;;;;90.10;20.27;;;6.00;99.90;;;;;;5010007;28;20178;-84
2023/02/11 02:11:41;;;;;;;87.45;20.05;;;6.10;99.90;;;;;;5010234;28;20184;-84
2023/02/11 02:14:07;;;;;;;89.77;22.13;;;6.10;99.90;;;;;;5009002;28;20634;-83
2023/02/11 02:16:35;;;;;;;89.60;23.43;;;6.10;99.90;;;;;;5009728;28;20398;-84
2023/02/11 02:19:29;;;;;;;103.93;26.67;;;6.10;99.90;;;;;;5009608;28;20665;-84
2023/02/11 02:22:22;;;;;;;89.40;24.35;;;6.20;99.90;;;;;;5010554;28;20270;-85
2023/02/11 02:25:12;;;;;;;96.25;24.75;;;6.40;99.90;;;;;;5009913;28;20170;-83
2023/02/11 02:28:05;;;;;;;99.00;24.63;;;6.40;99.90;;;;;;5009162;28;20187;-84
2023/02/11 02:31:09;;;;;;;91.20;21.58;;;6.40;99.90;;;;;;5009606;28;20630;-84
2023/02/11 02:34:08;;;;;;;90.60;22.48;;;6.40;99.90;;;;;;5010305;28;20147;-84
2023/02/11 02:36:42;;;;;;;98.05;27.90;;;6.50;99.90;;;;;;5009924;28;20147;-84
2023/02/11 02:39:14;;;;;;;91.18;24.35;;;6.50;99.90;;;;;;5008619;28;20158;-84
2023/02/11 02:41:44;;;;;;;89.70;24.77;;;6.60;99.90;;;;;;5010269;28;20196;-84
2023/02/11 02:44:10;;;;;;;95.00;21.30;;;6.50;99.90;;;;;;5008548;28;20194;-84
2023/02/11 02:46:36;;;;;;;100.60;24.80;;;6.60;99.90;;;;;;5009857;28;20179;-84
2023/02/11 02:49:05;;;;;;;91.25;22.70;;;6.60;99.90;;;;;;5013403;28;20195;-83
2023/02/11 02:51:59;;;;;;;95.93;25.13;;;6.50;99.90;;;;;;5012367;28;20186;-84
2023/02/11 02:54:58;;;;;;;92.10;21.85;;;6.50;99.90;;;;;;5013848;28;20170;-84
2023/02/11 02:57:45;;;;;;;104.72;23.08;;;6.40;99.90;;;;;;5013062;28;20205;-83
2023/02/11 03:00:47;;;;;;;94.45;21.65;;;6.40;99.90;;;;;;5012806;28;20165;-84
2023/02/11 03:03:35;;;;;;;95.78;22.63;;;6.40;99.90;;;;;;5013623;28;20517;-84
2023/02/11 03:06:10;;;;;;;94.32;22.38;;;6.30;99.90;;;;;;5012958;28;20170;-83
2023/02/11 03:08:49;;;;;;;96.25;24.20;;;6.20;99.90;;;;;;5014235;28;20174;-83
2023/02/11 03:11:18;;;;;;;97.68;23.80;;;6.20;99.90;;;;;;5010551;28;20213;-83
2023/02/11 03:13:46;;;;;;;99.53;24.58;;;6.10;99.90;;;;;;5012489;28;20178;-84
2023/02/11 03:16:20;;;;;;;100.75;25.23;;;6.10;99.90;;;;;;5014085;28;20231;-84
2023/02/11 03:19:06;;;;;;;102.90;27.50;;;6.00;99.90;;;;;;4996839;28;20186;-84
2023/02/11 03:21:34;;;;;;;100.53;28.60;;;6.00;99.90;;;;;;5012638;28;20182;-84
2023/02/11 03:24:09;;;;;;;100.75;33.22;;;6.00;99.90;;;;;;5013741;28;20643;-84
2023/02/11 03:26:44;;;;;;;95.80;33.85;;;6.00;99.90;;;;;;5011932;28;20189;-84
2023/02/11 03:29:28;;;;;;;100.22;32.80;;;6.00;99.90;;;;;;5013544;28;20182;-84
2023/02/11 03:32:02;;;;;;;100.20;30.38;;;6.10;99.90;;;;;;5012661;28;20189;-84
2023/02/11 03:34:59;;;;;;;100.05;33.67;;;6.00;99.90;;;;;;5013871;28;20158;-84
2023/02/11 03:37:32;;;;;;;109.15;37.53;;;6.10;99.90;;;;;;4961744;28;20170;-83
2023/02/11 03:40:12;;;;;;;100.65;38.78;;;6.00;99.90;;;;;;5012093;28;20147;-84
2023/02/11 03:42:47;;;;;;;101.82;35.70;;;6.10;99.90;;;;;;5081605;23;20272;-84
2023/02/11 03:45:16;;;;;;;99.38;35.67;;;6.00;99.90;;;;;;5021428;28;20162;-84
2023/02/11 03:47:47;;;;;;;100.65;33.85;;;6.10;99.90;;;;;;5003929;28;20194;-84
2023/02/11 03:50:15;;;;;;;104.55;35.83;;;6.00;99.90;;;;;;5021796;28;20166;-84
2023/02/11 03:52:41;;;;;;;98.68;29.40;;;6.00;99.90;;;;;;5004068;28;20190;-85
2023/02/11 03:55:16;;;;;;;100.28;31.40;;;6.00;99.90;;;;;;5003607;28;20162;-84
2023/02/11 03:57:41;;;;;;;104.97;33.45;;;6.00;99.90;;;;;;5001914;28;20154;-85
2023/02/11 04:00:08;;;;;;;99.57;29.90;;;6.00;99.90;;;;;;5002810;28;20221;-85
2023/02/11 04:02:35;;;;;;;98.78;31.02;;;5.90;99.90;;;;;;5002987;28;20456;-84
2023/02/11 04:05:02;;;;;;;98.68;34.92;;;5.90;99.90;;;;;;5002861;28;20229;-84
2023/02/11 04:07:28;;;;;;;96.45;33.88;;;5.90;99.90;;;;;;5002740;28;20201;-84
2023/02/11 04:09:54;;;;;;;98.32;35.20;;;6.00;99.90;;;;;;4985101;28;20193;-84
2023/02/11 04:12:20;;;;;;;102.37;38.63;;;5.90;99.90;;;;;;4986291;28;20653;-85
2023/02/11 04:14:46;;;;;;;103.97;39.43;;;6.00;99.90;;;;;;4985430;28;20182;-84
2023/02/11 04:17:11;;;;;;;104.97;40.00;;;5.90;99.90;;;;;;5003068;28;20901;-85
2023/02/11 04:19:37;;;;;;;98.10;37.22;;;6.00;99.90;;;;;;5003209;28;20170;-84
2023/02/11 04:22:03;;;;;;;105.80;38.47;;;6.10;99.90;;;;;;4985454;28;20194;-84
2023/02/11 04:24:30;;;;;;;99.65;34.38;;;6.10;99.90;;;;;;5002496;28;20459;-85
2023/02/11 04:26:56;;;;;;;94.47;31.67;;;6.20;99.90;;;;;;5003091;28;20177;-85
2023/02/11 04:29:22;;;;;;;98.25;33.45;;;6.10;99.90;;;;;;4985645;28;20253;-84
2023/02/11 04:31:47;;;;;;;97.90;32.00;;;6.10;99.90;;;;;;5002808;28;20219;-84
2023/02/11 04:34:13;;;;;;;99.73;31.60;;;6.10;99.90;;;;;;5003946;28;20754;-84
2023/02/11 04:36:39;;;;;;;99.97;38.22;;;6.10;99.90;;;;;;5002996;28;20170;-84
2023/02/11 04:39:05;;;;;;;97.30;35.60;;;6.10;99.90;;;;;;5002916;28;20177;-85
2023/02/11 04:41:31;;;;;;;100.75;40.25;;;6.10;99.90;;;;;;4985925;28;20190;-84
2023/02/11 04:43:57;;;;;;;97.87;39.87;;;6.10;99.90;;;;;;5002760;28;20190;-84
2023/02/11 04:46:22;;;;;;;95.77;38.37;;;6.10;99.90;;;;;;4985229;28;20166;-84
2023/02/11 04:48:48;;;;;;;102.80;42.23;;;6.10;99.90;;;;;;4984933;28;20198;-84
2023/02/11 04:51:14;;;;;;;105.80;36.33;;;6.00;99.90;;;;;;5003016;28;20189;-84
2023/02/11 04:53:40;;;;;;;109.53;40.27;;;6.10;99.90;;;;;;4985261;28;20170;-84
2023/02/11 04:56:08;;;;;;;98.57;35.63;;;6.20;99.90;;;;;;5002440;28;20254;-85
2023/02/11 04:58:34;;;;;;;98.07;36.63;;;6.10;99.90;;;;;;4984894;28;20238;-85
2023/02/11 05:01:11;;;;;;;99.67;37.93;;;6.10;99.90;;;;;;5002671;28;20682;-84
2023/02/11 05:03:37;;;;;;;101.03;33.20;;;6.10;99.90;;;;;;4984824;28;20226;-84
2023/02/11 05:06:03;;;;;;;101.43;36.33;;;6.20;99.90;;;;;;5002382;28;20167;-85
2023/02/11 05:08:29;;;;;;;98.20;32.72;;;6.30;99.90;;;;;;4983549;28;20201;-84
2023/02/11 05:10:55;;;;;;;97.30;32.60;;;6.20;99.90;;;;;;4982452;28;20733;-84
2023/02/11 05:13:21;;;;;;;96.50;30.60;;;6.30;99.90;;;;;;5000187;28;20163;-84
2023/02/11 05:15:46;;;;;;;97.33;27.77;;;6.30;99.90;;;;;;4983190;28;20198;-84
2023/02/11 05:18:13;;;;;;;99.97;29.90;;;6.30;99.90;;;;;;5001182;28;20166;-85
2023/02/11 05:20:41;;;;;;;95.00;25.80;;;6.30;99.90;;;;;;4999481;28;20166;-85
2023/02/11 05:23:06;;;;;;;101.30;29.23;;;6.30;99.90;;;;;;5000993;28;20166;-85
2023/02/11 05:25:32;;;;;;;94.17;25.77;;;6.40;99.90;;;;;;4982971;28;20665;-84
2023/02/11 05:27:58;;;;;;;97.43;32.17;;;6.30;99.90;;;;;;5000895;28;20476;-84
2023/02/11 05:30:24;;;;;;;106.60;37.00;;;6.20;99.90;;;;;;4999972;28;20402;-84
2023/02/11 05:32:53;;;;;;;97.47;37.20;;;6.20;99.90;;;;;;5000563;28;20209;-84
2023/02/11 05:35:19;;;;;;;100.70;35.95;;;6.30;99.90;;;;;;4983964;28;20843;-85
2023/02/11 05:37:44;;;;;;;95.47;37.40;;;6.20;99.90;;;;;;5001672;28;20185;-84
2023/02/11 05:40:10;;;;;;;98.30;38.23;;;6.30;99.90;;;;;;5001070;28;20519;-84
2023/02/11 05:42:36;;;;;;;98.27;35.07;;;6.30;99.90;;;;;;5000338;28;20190;-84
2023/02/11 05:45:02;;;;;;;102.70;40.70;;;6.30;99.90;;;;;;5001384;28;20445;-84
2023/02/11 05:47:27;;;;;;;107.50;44.00;;;6.30;99.90;;;;;;5000913;28;20175;-84
2023/02/11 05:49:53;;;;;;;99.30;35.60;;;6.30;99.90;;;;;;5000680;28;20230;-84
2023/02/11 05:52:20;;;;;;;100.00;34.40;;;6.30;99.90;;;;;;4983476;28;20213;-84
2023/02/11 05:54:46;;;;;;;103.20;36.33;;;6.30;99.90;;;;;;4982648;28;20174;-84
2023/02/11 05:57:12;;;;;;;107.27;36.63;;;6.30;99.90;;;;;;5000937;28;20217;-84
2023/02/11 05:59:38;;;;;;;98.32;32.92;;;6.30;99.90;;;;;;4983383;28;20171;-85
2023/02/11 06:02:04;;;;;;;110.27;36.87;;;6.30;99.90;;;;;;4983086;28;20194;-85
2023/02/11 06:04:29;;;;;;;98.10;34.50;;;6.30;99.90;;;;;;5000992;28;20460;-84
2023/02/11 06:06:56;;;;;;;98.10;35.80;;;6.40;99.90;;;;;;5001332;28;20413;-84
2023/02/11 06:09:21;;;;;;;103.22;33.47;;;6.40;99.90;;;;;;4983918;28;20194;-84
2023/02/11 06:11:47;;;;;;;96.20;33.43;;;6.40;99.90;;;;;;5000943;28;20213;-84
2023/02/11 06:14:13;;;;;;;94.43;28.50;;;6.40;99.90;;;;;;5000452;28;20166;-84
2023/02/11 06:16:42;;;;;;;95.35;31.70;;;6.30;99.90;;;;;;4982985;28;20409;-84
2023/02/11 06:19:07;;;;;;;100.10;32.88;;;6.40;99.90;;;;;;5000239;28;20182;-84
2023/02/11 06:21:33;;;;;;;101.20;31.60;;;6.40;99.90;;;;;;4982202;28;20221;-84
2023/02/11 06:23:59;;;;;;;97.03;30.67;;;6.40;99.90;;;;;;4983613;28;20193;-84
2023/02/11 06:26:25;;;;;;;109.23;30.50;;;6.40;99.90;;;;;;5000957;28;20233;-85
2023/02/11 06:28:50;;;;;;;102.10;29.23;;;6.30;99.90;;;;;;4982197;28;20249;-84
2023/02/11 06:31:16;;;;;;;98.03;27.83;;;6.30;99.90;;;;;;4999210;28;20425;-83
2023/02/11 06:33:42;;;;;;;96.57;26.10;;;6.40;99.90;;;;;;4981687;28;20197;-84
2023/02/11 06:36:17;;;;;;;101.38;25.75;;;6.30;99.90;;;;;;4999084;28;20426;-83
2023/02/11 06:38:43;;;;;;;99.38;25.50;;;6.30;99.90;;;;;;4982510;28;20261;-83
2023/02/11 06:41:13;;;;;;;95.82;24.08;;;6.40;99.90;;;;;;4998324;28;20201;-84
2023/02/11 06:43:40;;;;;;;100.18;25.10;;;6.40;99.90;;;;;;4998730;28;20182;-84
2023/02/11 06:46:07;;;;;;;101.07;26.88;;;6.40;99.90;;;;;;4981272;28;20188;-83
2023/02/11 06:48:33;;;;;;;96.00;26.02;;;6.40;99.90;;;;;;4998639;28;20208;-83
2023/02/11 06:51:10;;;;;;;105.35;28.98;;;6.40;99.90;;;;;;4981155;28;20186;-83
2023/02/11 06:53:41;;;;;;;100.03;24.55;;;6.40;99.90;;;;;;4998660;28;20163;-84
2023/02/11 06:56:10;;;;;;;97.32;25.13;;;6.40;99.90;;;;;;4980564;28;20155;-83
2023/02/11 06:58:36;;;;;;;103.35;26.23;;;6.40;99.90;;;;;;4998531;28;20174;-83
2023/02/11 07:01:10;;;;;;;94.00;25.42;;;6.50;99.90;;;;;;4998211;28;20269;-84
2023/02/11 07:03:38;;;;;;;103.47;26.90;;;6.50;99.90;;;;;;4998794;28;20150;-84
2023/02/11 07:06:05;;;;;;;98.30;25.25;;;6.40;99.90;;;;;;4980780;28;20171;-83
2023/02/11 07:08:36;;;;;;;96.20;22.25;;;6.40;99.90;;;;;;4998298;28;20197;-84
2023/02/11 07:11:11;;;;;;;95.20;23.90;;;6.50;99.90;;;;;;4981103;28;20192;-83
2023/02/11 07:13:37;;;;;;;97.10;23.98;;;6.40;99.90;;;;;;4998551;28;20185;-83
2023/02/11 07:16:06;;;;;;;98.77;25.50;;;6.50;99.90;;;;;;4999070;28;20159;-84
2023/02/11 07:18:32;;;;;;;101.57;26.33;;;6.50;99.90;;;;;;4980805;28;20166;-84
2023/02/11 07:20:57;;;;;;;101.30;23.37;;;6.50;99.90;;;;;;4999201;28;20741;-84
2023/02/11 07:23:23;;;;;;;96.67;24.53;;;6.50;99.90;;;;;;4998908;28;20194;-84
2023/02/11 07:25:48;;;;;;;96.20;22.47;;;6.50;99.90;;;;;;4998842;28;20170;-84
2023/02/11 07:28:14;;;;;;;103.40;25.90;;;6.50;99.90;;;;;;4981470;28;20696;-84
2023/02/11 07:30:40;;;;;;;98.90;25.33;;;6.50;99.90;;;;;;4980932;28;20181;-83
2023/02/11 07:33:05;;;;;;;111.40;24.57;;;6.50;99.90;;;;;;4998328;28;20166;-83
2023/02/11 07:35:31;;;;;;;101.53;24.83;;;6.50;99.90;;;;;;5001877;28;20147;-83
2023/02/11 07:37:57;;;;;;;99.97;24.00;;;6.50;99.90;;;;;;4984736;28;20265;-84
2023/02/11 07:40:22;;;;;;;101.60;24.37;;;6.50;99.90;;;;;;5002697;28;20181;-83
2023/02/11 07:42:48;;;;;;;99.00;26.33;;;6.50;99.90;;;;;;5002714;28;20569;-84
2023/02/11 07:45:13;;;;;;;99.73;25.30;;;6.50;99.90;;;;;;4985091;28;20613;-84
2023/02/11 07:47:41;;;;;;;101.10;24.53;;;6.50;99.90;;;;;;4984849;28;20194;-83
2023/02/11 07:50:08;;;;;;;99.32;24.30;;;6.50;99.90;;;;;;4985004;28;20185;-83
2023/02/11 07:52:33;;;;;;;98.13;24.42;;;6.50;99.90;;;;;;5001904;28;20178;-84
2023/02/11 07:54:59;;;;;;;102.93;25.70;;;6.60;99.90;;;;;;4984045;28;20257;-84
2023/02/11 07:57:25;;;;;;;99.73;27.47;;;6.60;99.90;;;;;;5001386;28;20167;-84
2023/02/11 07:59:51;;;;;;;98.20;29.37;;;6.60;99.90;;;;;;4984335;28;20162;-84
2023/02/11 08:02:17;;;;;;;96.90;24.10;;;6.50;99.90;;;;;;5002143;28;20253;-83
2023/02/11 08:04:45;;;;;;;99.63;25.83;;;6.50;99.90;;;;;;5001788;28;20637;-83
2023/02/11 08:07:15;;;;;;;105.15;28.00;;;6.50;99.90;;;;;;5002531;28;20189;-84
2023/02/11 08:09:40;;;;;;;105.05;29.23;;;6.50;99.90;;;;;;4983859;28;20608;-83
2023/02/11 08:12:06;;;;;;;98.80;25.00;;;6.60;99.90;;;;;;5001033;28;20269;-84
2023/02/11 08:14:32;;;;;;;102.33;27.50;;;6.60;99.90;;;;;;4983306;28;20163;-84
2023/02/11 08:16:58;;;;;;;105.30;26.27;;;6.60;99.90;;;;;;5000454;28;20163;-83
2023/02/11 08:19:23;;;;;;;93.33;25.90;;;6.70;99.90;;;;;;5000705;28;20222;-84
2023/02/11 08:21:49;;;;;;;99.33;25.93;;;6.60;99.90;;;;;;4982659;28;20197;-84
2023/02/11 08:24:15;;;;;;;100.27;27.97;;;6.70;99.90;;;;;;5001312;28;20574;-84
2023/02/11 08:26:41;;;;;;;100.43;28.30;;;6.70;99.90;;;;;;5001336;28;20502;-84
2023/02/11 08:29:10;;;;;;;115.77;27.90;;;6.80;99.90;;;;;;4982464;28;20450;-83
2023/02/11 08:31:39;;;;;;;100.72;24.30;;;6.70;99.90;;;;;;5000595;28;20186;-84
2023/02/11 08:34:08;;;;;;;94.65;24.25;;;6.80;99.90;;;;;;4983005;28;20173;-84
2023/02/11 08:36:36;;;;;;;95.22;24.70;;;6.80;99.90;;;;;;5001344;28;20545;-84
2023/02/11 08:39:08;;;;;;;95.93;24.25;;;6.80;99.90;;;;;;5000600;28;20163;-84
2023/02/11 08:41:34;;;;;;;101.57;25.60;;;6.80;99.90;;;;;;5000657;28;20220;-84
2023/02/11 08:44:01;;;;;;;102.32;28.17;;;6.80;99.90;;;;;;4982926;28;20405;-83
2023/02/11 08:46:26;;;;;;;104.28;29.42;;;6.80;99.90;;;;;;5000826;28;20293;-84
2023/02/11 08:48:53;;;;;;;102.47;28.20;;;6.70;99.90;;;;;;5000987;28;20229;-84
2023/02/11 08:51:26;;;;;;;98.55;27.63;;;6.80;99.90;;;;;;5000737;28;20190;-84
2023/02/11 08:53:55;;;;;;;103.28;26.35;;;6.80;99.90;;;;;;5000692;28;20197;-84
2023/02/11 08:56:22;;;;;;;102.68;27.75;;;6.90;99.90;;;;;;4983458;28;20162;-84
2023/02/11 08:58:48;;;;;;;102.38;29.52;;;6.90;99.90;;;;;;5000669;28;20170;-84
2023/02/11 09:01:17;;;;;;;113.22;28.38;;;6.90;99.90;;;;;;5001102;28;20205;-84
2023/02/11 09:03:43;;;;;;;103.82;28.38;;;6.90;99.90;;;;;;5000142;28;20182;-84
2023/02/11 09:06:10;;;;;;;102.43;26.47;;;7.00;99.90;;;;;;4983092;28;20170;-84
2023/02/11 09:08:38;;;;;;;109.57;31.38;;;7.00;99.90;;;;;;4983298;28;20205;-84
2023/02/11 09:11:04;;;;;;;107.15;26.85;;;6.90;99.90;;;;;;5001238;28;20174;-84
2023/02/11 09:13:31;;;;;;;107.70;27.20;;;7.00;99.90;;;;;;5000667;28;20243;-84
2023/02/11 09:15:58;;;;;;;97.90;23.63;;;7.00;99.90;;;;;;4983481;28;20170;-84
2023/02/11 09:18:24;;;;;;;100.70;26.88;;;7.00;99.90;;;;;;5000513;28;20177;-84
2023/02/11 09:20:50;;;;;;;105.70;27.17;;;7.00;99.90;;;;;;4999981;28;20182;-83
2023/02/11 09:23:16;;;;;;;105.13;26.17;;;7.00;99.90;;;;;;4982581;28;20177;-84
2023/02/11 09:25:42;;;;;;;105.80;26.08;;;7.00;99.90;;;;;;5000372;28;20167;-83
2023/02/11 09:28:08;;;;;;;103.90;25.27;;;7.10;99.90;;;;;;5000397;28;20198;-83
2023/02/11 09:30:36;;;;;;;106.88;29.45;;;7.20;99.90;;;;;;4999854;28;20405;-84
2023/02/11 09:33:02;;;;;;;100.63;25.58;;;7.20;99.90;;;;;;5000551;28;20171;-83
2023/02/11 09:35:28;;;;;;;103.82;28.83;;;7.10;99.90;;;;;;4999177;28;20265;-83
2023/02/11 09:37:54;;;;;;;106.82;27.00;;;7.20;99.90;;;;;;4983083;28;20206;-83
2023/02/11 09:40:20;;;;;;;102.27;26.37;;;7.20;99.90;;;;;;4982872;28;20174;-84
2023/02/11 09:42:53;;;;;;;98.60;24.58;;;7.20;99.90;;;;;;4982271;28;20496;-83
2023/02/11 09:45:24;;;;;;;106.82;27.25;;;7.30;99.90;;;;;;4999599;28;20165;-84
2023/02/11 09:48:11;;;;;;;98.32;24.63;;;7.30;99.90;;;;;;4982594;28;20190;-83
2023/02/11 09:50:50;;;;;;;97.72;23.77;;;7.30;99.90;;;;;;4999960;28;20155;-83
2023/02/11 09:53:27;;;;;;;104.45;23.65;;;7.30;99.90;;;;;;4999924;28;20557;-84
2023/02/11 09:55:58;;;;;;;97.93;24.90;;;7.40;99.90;;;;;;4980945;28;20642;-84
2023/02/11 09:58:28;;;;;;;96.13;24.33;;;7.40;99.90;;;;;;4981777;28;20155;-84
2023/02/11 10:01:06;;;;;;;104.32;22.80;;;7.40;99.90;;;;;;4999766;28;20201;-83
2023/02/11 10:03:59;;;;;;;98.95;25.92;;;7.40;99.90;;;;;;4982512;28;20536;-83
2023/02/11 10:06:44;;;;;;;103.05;23.67;;;7.40;99.90;;;;;;4981842;28;20189;-83
2023/02/11 10:09:35;;;;;;;101.53;24.17;;;7.50;99.90;;;;;;4999343;28;20658;-83
2023/02/11 10:12:11;;;;;;;101.55;21.20;;;7.50;99.90;;;;;;4981808;28;20187;-84
2023/02/11 10:15:04;;;;;;;101.47;24.15;;;7.50;99.90;;;;;;4998531;28;20147;-84
2023/02/11 10:18:05;;;;;;;95.53;23.08;;;7.50;99.90;;;;;;4999662;28;20147;-83
2023/02/11 10:20:38;;;;;;;95.30;23.15;;;7.60;99.90;;;;;;4981652;28;20507;-84
2023/02/11 10:23:18;;;;;;;98.35;23.65;;;7.60;99.90;;;;;;4998975;28;20154;-83
2023/02/11 10:25:47;;;;;;;98.88;23.38;;;7.60;99.90;;;;;;4999545;28;20197;-84
2023/02/11 10:28:17;;;;;;;93.50;20.55;;;7.70;99.90;;;;;;4981727;28;20197;-84
2023/02/11 10:31:07;;;;;;;93.00;21.48;;;7.60;99.90;;;;;;4999073;28;20186;-83
2023/02/11 10:33:40;;;;;;;99.93;23.55;;;7.60;99.90;;;;;;4999217;28;20162;-84
2023/02/11 10:36:07;;;;;;;98.75;22.15;;;7.60;99.90;;;;;;4999092;28;20162;-83
2023/02/11 10:38:35;;;;;;;97.05;22.98;;;7.70;99.90;;;;;;4982485;28;20166;-84
2023/02/11 10:41:00;;;;;;;100.40;23.58;;;7.70;99.90;;;;;;4998682;28;20186;-84
2023/02/11 10:43:30;;;;;;;96.20;22.60;;;7.70;99.90;;;;;;4981449;28;20273;-84
2023/02/11 10:45:57;;;;;;;97.60;21.80;;;7.60;99.90;;;;;;4982540;28;20181;-84
2023/02/11 10:48:45;;;;;;;96.55;22.20;;;7.70;99.90;;;;;;4999579;28;20206;-83
2023/02/11 10:51:18;;;;;;;96.93;20.88;;;7.80;99.90;;;;;;4998870;28;20265;-84
2023/02/11 10:53:48;;;;;;;92.82;20.55;;;7.70;99.90;;;;;;4981460;28;20178;-83
2023/02/11 10:56:26;;;;;;;97.63;22.90;;;7.70;99.90;;;;;;4981560;28;20523;-84
2023/02/11 10:59:04;;;;;;;95.72;22.95;;;7.70;99.90;;;;;;4999059;28;20183;-83
2023/02/11 11:01:41;;;;;;;95.10;21.90;;;7.80;99.90;;;;;;4998858;28;20185;-84
2023/02/11 11:04:32;;;;;;;92.78;22.02;;;7.80;99.90;;;;;;4981333;28;20189;-83
2023/02/11 11:07:21;;;;;;;95.82;21.70;;;7.80;99.90;;;;;;4999404;28;20622;-83
2023/02/11 11:09:58;;;;;;;94.82;21.85;;;7.80;99.90;;;;;;5002295;28;20190;-83
2023/02/11 11:12:45;;;;;;;91.53;20.38;;;7.80;99.90;;;;;;5002591;28;20270;-83
2023/02/11 11:15:25;;;;;;;99.88;21.83;;;7.90;99.90;;;;;;4985111;28;20257;-83
2023/02/11 11:18:09;;;;;;;91.30;20.20;;;8.00;99.90;;;;;;5002447;28;20180;-83
2023/02/11 11:20:36;;;;;;;96.15;23.05;;;7.90;99.90;;;;;;5002144;28;20155;-83
2023/02/11 11:23:18;;;;;;;93.13;20.77;;;8.00;99.90;;;;;;5002161;28;20538;-83
2023/02/11 11:25:58;;;;;;;100.35;24.38;;;8.00;99.90;;;;;;5002749;28;20607;-84
2023/02/11 11:28:27;;;;;;;94.35;22.63;;;8.00;99.90;;;;;;5002468;28;20193;-84
2023/02/11 11:30:54;;;;;;;99.20;19.92;;;8.00;99.90;;;;;;4984456;28;20198;-83
2023/02/11 11:33:33;;;;;;;93.68;20.83;;;8.10;99.90;;;;;;5002601;28;20162;-83
2023/02/11 11:36:11;;;;;;;95.60;22.80;;;8.10;99.90;;;;;;4984609;28;20593;-84
2023/02/11 11:38:44;;;;;;;95.10;22.38;;;8.00;99.90;;;;;;4984681;28;20183;-84
2023/02/11 11:41:21;;;;;;;96.65;24.00;;;8.00;99.90;;;;;;5002231;28;20217;-84
2023/02/11 11:43:55;;;;;;;92.75;21.63;;;8.10;99.90;;;;;;5002431;28;20178;-84
2023/02/11 11:46:39;;;;;;;95.32;21.95;;;8.10;99.90;;;;;;5002414;28;20167;-84
2023/02/11 11:49:08;;;;;;;95.80;21.98;;;8.20;99.90;;;;;;5001307;28;20565;-83
2023/02/11 11:51:36;;;;;;;96.63;22.30;;;8.20;99.90;;;;;;4984412;28;20202;-84
2023/02/11 11:54:07;;;;;;;94.20;21.98;;;8.10;99.90;;;;;;5002293;28;20187;-83
2023/02/11 11:56:36;;;;;;;93.57;21.83;;;8.20;99.90;;;;;;5001709;28;20166;-83
2023/02/11 11:59:12;;;;;;;99.43;20.13;;;8.20;99.90;;;;;;5001831;28;20689;-84
2023/02/11 12:01:54;;;;;;;95.40;21.70;;;8.10;99.90;;;;;;5002774;28;20186;-85
2023/02/11 12:04:52;;;;;;;95.03;23.92;;;8.20;99.90;;;;;;5004926;28;20178;-84
2023/02/11 12:07:23;;;;;;;95.25;22.27;;;8.20;99.90;;;;;;4985890;28;20238;-84
2023/02/11 12:10:41;;;;;;;97.40;23.98;;;8.10;99.90;;;;;;4984502;28;20229;-83
2023/02/11 12:12:59;;;;;;;96.57;22.77;;;8.00;99.90;;;;;;4999543;28;20174;-83
2023/02/11 12:15:43;;;;;;;98.50;22.37;;;8.00;99.90;;;;;;5001027;28;20163;-83
2023/02/11 12:19:01;;;;;;;108.13;25.08;;;8.00;99.90;;;;;;5001931;28;20158;-83
2023/02/11 12:21:47;;;;;;;101.55;22.60;;;8.00;99.90;;;;;;4922544;29;20189;-84
2023/02/11 12:24:43;;;;;;;98.68;22.40;;;8.00;99.90;;;;;;4922165;29;20166;-83
2023/02/11 12:27:36;;;;;;;114.78;25.73;;;8.10;99.90;;;;;;4985906;28;20182;-84
2023/02/11 12:30:26;;;;;;;100.05;22.95;;;8.10;99.90;;;;;;5001547;28;20150;-84
2023/02/11 12:33:24;;;;;;;104.82;26.08;;;8.10;99.90;;;;;;5001466;28;20708;-83
2023/02/11 12:36:28;;;;;;;98.03;22.52;;;8.10;99.90;;;;;;4994424;28;20187;-83
2023/02/11 12:39:13;;;;;;;97.55;21.98;;;8.10;99.90;;;;;;5000672;28;20289;-83
2023/02/11 12:44:58;;;;;;;102.43;23.52;;;8.00;99.90;;;;;;5000944;28;20293;-83
2023/02/11 12:48:03;;;;;;;104.32;22.70;;;8.10;99.90;;;;;;4989630;28;20187;-83
2023/02/11 12:50:31;;;;;;;101.32;21.63;;;8.10;99.90;;;;;;4937221;28;20182;-83
2023/02/11 12:53:00;;;;;;;99.57;21.88;;;8.10;99.90;;;;;;5000250;28;20163;-83
2023/02/11 12:55:31;;;;;;;100.57;22.40;;;8.10;99.90;;;;;;4982910;28;20166;-83
2023/02/11 12:58:00;;;;;;;102.97;24.10;;;8.00;99.90;;;;;;5001119;28;20246;-83
2023/02/11 13:00:46;;;;;;;96.28;19.98;;;8.00;99.90;;;;;;5001405;28;20734;-84
2023/02/11 13:03:20;;;;;;;98.43;22.75;;;8.10;99.90;;;;;;4982633;28;20631;-83